sensor_id;sensor_type;location;lat;lon;timestamp;temperature;humidity
72114;SHT31;59989;46.220;19.888;2023-08-20T00:00:22;23.03;90.18
72114;SHT31;59989;46.220;19.888;2023-08-20T00:03:25;23.00;90.07
72114;SHT31;59989;46.220;19.888;2023-08-20T00:06:28;23.03;89.96
72114;SHT31;59989;46.220;19.888;2023-08-20T00:09:31;23.08;89.85
72114;SHT31;59989;46.220;19.888;2023-08-20T00:12:33;23.03;90.01
72114;SHT31;59989;46.220;19.888;2023-08-20T00:15:36;23.03;90.00
72114;SHT31;59989;46.220;19.888;2023-08-20T00:18:39;22.99;89.99
72114;SHT31;59989;46.220;19.888;2023-08-20T00:21:42;22.98;90.15
72114;SHT31;59989;46.220;19.888;2023-08-20T00:24:45;22.94;90.20
72114;SHT31;59989;46.220;19.888;2023-08-20T00:27:48;22.88;90.30
72114;SHT31;59989;46.220;19.888;2023-08-20T00:30:51;22.85;90.49
72114;SHT31;59989;46.220;19.888;2023-08-20T00:33:54;22.81;90.69
72114;SHT31;59989;46.220;19.888;2023-08-20T00:37:08;22.71;91.02
72114;SHT31;59989;46.220;19.888;2023-08-20T00:40:12;22.62;91.33
72114;SHT31;59989;46.220;19.888;2023-08-20T00:43:14;22.64;91.28
72114;SHT31;59989;46.220;19.888;2023-08-20T00:46:17;22.62;91.09
72114;SHT31;59989;46.220;19.888;2023-08-20T00:49:20;22.67;90.86
72114;SHT31;59989;46.220;19.888;2023-08-20T00:52:22;22.64;90.77
72114;SHT31;59989;46.220;19.888;2023-08-20T00:55:25;22.61;90.97
72114;SHT31;59989;46.220;19.888;2023-08-20T00:58:28;22.58;90.87
72114;SHT31;59989;46.220;19.888;2023-08-20T01:01:32;22.61;90.73
72114;SHT31;59989;46.220;19.888;2023-08-20T01:04:35;22.61;90.64
72114;SHT31;59989;46.220;19.888;2023-08-20T01:11:03;22.58;90.86
72114;SHT31;59989;46.220;19.888;2023-08-20T01:14:15;22.60;90.34
72114;SHT31;59989;46.220;19.888;2023-08-20T01:17:18;22.61;90.17
72114;SHT31;59989;46.220;19.888;2023-08-20T01:20:25;22.64;89.91
72114;SHT31;59989;46.220;19.888;2023-08-20T01:23:39;22.62;89.92
72114;SHT31;59989;46.220;19.888;2023-08-20T01:29:51;22.57;90.29
72114;SHT31;59989;46.220;19.888;2023-08-20T01:32:54;22.45;90.75
72114;SHT31;59989;46.220;19.888;2023-08-20T01:35:56;22.44;90.66
72114;SHT31;59989;46.220;19.888;2023-08-20T01:38:59;22.47;90.38
72114;SHT31;59989;46.220;19.888;2023-08-20T01:42:01;22.44;90.38
72114;SHT31;59989;46.220;19.888;2023-08-20T01:45:04;22.37;90.67
72114;SHT31;59989;46.220;19.888;2023-08-20T01:48:07;22.31;90.86
72114;SHT31;59989;46.220;19.888;2023-08-20T01:51:10;22.33;90.72
72114;SHT31;59989;46.220;19.888;2023-08-20T01:54:12;22.25;90.91
72114;SHT31;59989;46.220;19.888;2023-08-20T01:57:15;22.21;91.04
72114;SHT31;59989;46.220;19.888;2023-08-20T02:00:18;22.20;91.17
72114;SHT31;59989;46.220;19.888;2023-08-20T02:03:20;22.13;91.28
72114;SHT31;59989;46.220;19.888;2023-08-20T02:06:23;22.12;91.46
72114;SHT31;59989;46.220;19.888;2023-08-20T02:09:26;22.07;91.51
72114;SHT31;59989;46.220;19.888;2023-08-20T02:12:28;22.03;91.47
72114;SHT31;59989;46.220;19.888;2023-08-20T02:15:31;22.09;91.10
72114;SHT31;59989;46.220;19.888;2023-08-20T02:18:34;22.10;90.98
72114;SHT31;59989;46.220;19.888;2023-08-20T02:21:37;22.06;91.02
72114;SHT31;59989;46.220;19.888;2023-08-20T02:24:39;22.04;91.01
72114;SHT31;59989;46.220;19.888;2023-08-20T02:27:43;22.02;91.09
72114;SHT31;59989;46.220;19.888;2023-08-20T02:30:46;21.99;91.41
72114;SHT31;59989;46.220;19.888;2023-08-20T02:33:49;21.90;91.68
72114;SHT31;59989;46.220;19.888;2023-08-20T02:36:52;21.86;91.70
72114;SHT31;59989;46.220;19.888;2023-08-20T02:39:54;21.92;91.37
72114;SHT31;59989;46.220;19.888;2023-08-20T02:42:57;21.99;90.81
72114;SHT31;59989;46.220;19.888;2023-08-20T02:45:59;21.96;90.88
72114;SHT31;59989;46.220;19.888;2023-08-20T02:49:02;21.92;91.64
72114;SHT31;59989;46.220;19.888;2023-08-20T02:52:04;21.86;91.66
72114;SHT31;59989;46.220;19.888;2023-08-20T02:55:07;21.82;91.28
72114;SHT31;59989;46.220;19.888;2023-08-20T02:58:10;21.69;91.23
72114;SHT31;59989;46.220;19.888;2023-08-20T03:01:23;21.65;91.92
72114;SHT31;59989;46.220;19.888;2023-08-20T03:04:28;21.63;92.39
72114;SHT31;59989;46.220;19.888;2023-08-20T03:07:31;21.65;92.37
72114;SHT31;59989;46.220;19.888;2023-08-20T03:10:35;21.55;91.43
72114;SHT31;59989;46.220;19.888;2023-08-20T03:13:37;21.51;91.92
72114;SHT31;59989;46.220;19.888;2023-08-20T03:16:40;21.45;92.21
72114;SHT31;59989;46.220;19.888;2023-08-20T03:19:56;21.44;92.97
72114;SHT31;59989;46.220;19.888;2023-08-20T03:22:59;21.39;92.93
72114;SHT31;59989;46.220;19.888;2023-08-20T03:26:01;21.28;92.75
72114;SHT31;59989;46.220;19.888;2023-08-20T03:29:05;21.25;93.08
72114;SHT31;59989;46.220;19.888;2023-08-20T03:32:07;21.20;92.99
72114;SHT31;59989;46.220;19.888;2023-08-20T03:35:10;21.12;93.40
72114;SHT31;59989;46.220;19.888;2023-08-20T03:38:13;21.12;93.54
72114;SHT31;59989;46.220;19.888;2023-08-20T03:41:15;21.10;94.04
72114;SHT31;59989;46.220;19.888;2023-08-20T03:44:20;21.21;94.09
72114;SHT31;59989;46.220;19.888;2023-08-20T03:47:24;21.23;93.95
72114;SHT31;59989;46.220;19.888;2023-08-20T03:50:27;21.14;93.83
72114;SHT31;59989;46.220;19.888;2023-08-20T03:53:29;21.08;93.75
72114;SHT31;59989;46.220;19.888;2023-08-20T03:56:32;21.04;93.76
72114;SHT31;59989;46.220;19.888;2023-08-20T03:59:34;21.03;93.95
72114;SHT31;59989;46.220;19.888;2023-08-20T04:02:37;21.07;94.34
72114;SHT31;59989;46.220;19.888;2023-08-20T04:05:39;21.15;94.38
72114;SHT31;59989;46.220;19.888;2023-08-20T04:08:42;21.12;94.05
72114;SHT31;59989;46.220;19.888;2023-08-20T04:11:45;21.11;94.04
72114;SHT31;59989;46.220;19.888;2023-08-20T04:14:48;21.21;94.06
72114;SHT31;59989;46.220;19.888;2023-08-20T04:17:51;21.31;93.54
72114;SHT31;59989;46.220;19.888;2023-08-20T04:20:55;21.39;93.38
72114;SHT31;59989;46.220;19.888;2023-08-20T04:23:59;21.42;93.27
72114;SHT31;59989;46.220;19.888;2023-08-20T04:27:02;21.52;92.77
72114;SHT31;59989;46.220;19.888;2023-08-20T04:30:05;21.56;92.59
72114;SHT31;59989;46.220;19.888;2023-08-20T04:33:09;21.65;92.43
72114;SHT31;59989;46.220;19.888;2023-08-20T04:36:13;21.69;92.17
72114;SHT31;59989;46.220;19.888;2023-08-20T04:39:16;21.75;92.19
72114;SHT31;59989;46.220;19.888;2023-08-20T04:42:22;21.79;91.99
72114;SHT31;59989;46.220;19.888;2023-08-20T04:45:25;21.86;91.74
72114;SHT31;59989;46.220;19.888;2023-08-20T04:48:28;21.89;91.52
72114;SHT31;59989;46.220;19.888;2023-08-20T04:51:31;21.90;91.49
72114;SHT31;59989;46.220;19.888;2023-08-20T04:54:33;21.90;91.35
72114;SHT31;59989;46.220;19.888;2023-08-20T04:57:37;21.93;91.48
72114;SHT31;59989;46.220;19.888;2023-08-20T05:00:39;21.99;91.27
72114;SHT31;59989;46.220;19.888;2023-08-20T05:03:46;22.03;91.20
72114;SHT31;59989;46.220;19.888;2023-08-20T05:06:49;22.10;90.91
72114;SHT31;59989;46.220;19.888;2023-08-20T05:09:54;22.20;90.77
72114;SHT31;59989;46.220;19.888;2023-08-20T05:12:56;22.30;90.54
72114;SHT31;59989;46.220;19.888;2023-08-20T05:15:59;22.39;90.31
72114;SHT31;59989;46.220;19.888;2023-08-20T05:19:02;22.48;90.15
72114;SHT31;59989;46.220;19.888;2023-08-20T05:22:04;22.57;89.92
72114;SHT31;59989;46.220;19.888;2023-08-20T05:25:09;22.68;89.38
72114;SHT31;59989;46.220;19.888;2023-08-20T05:28:13;22.79;89.25
72114;SHT31;59989;46.220;19.888;2023-08-20T05:31:15;22.89;89.01
72114;SHT31;59989;46.220;19.888;2023-08-20T05:34:18;22.96;88.23
72114;SHT31;59989;46.220;19.888;2023-08-20T05:37:20;23.10;88.46
72114;SHT31;59989;46.220;19.888;2023-08-20T05:40:23;23.20;87.99
72114;SHT31;59989;46.220;19.888;2023-08-20T05:43:25;23.36;87.48
72114;SHT31;59989;46.220;19.888;2023-08-20T05:46:28;23.47;87.57
72114;SHT31;59989;46.220;19.888;2023-08-20T05:49:31;23.54;86.87
72114;SHT31;59989;46.220;19.888;2023-08-20T05:52:33;23.60;86.96
72114;SHT31;59989;46.220;19.888;2023-08-20T05:55:37;23.60;87.17
72114;SHT31;59989;46.220;19.888;2023-08-20T05:58:40;23.60;86.60
72114;SHT31;59989;46.220;19.888;2023-08-20T06:01:43;23.63;85.96
72114;SHT31;59989;46.220;19.888;2023-08-20T06:04:45;23.68;86.26
72114;SHT31;59989;46.220;19.888;2023-08-20T06:07:48;23.81;86.48
72114;SHT31;59989;46.220;19.888;2023-08-20T06:10:50;23.93;85.67
72114;SHT31;59989;46.220;19.888;2023-08-20T06:13:53;24.06;85.26
72114;SHT31;59989;46.220;19.888;2023-08-20T06:16:55;24.24;84.84
72114;SHT31;59989;46.220;19.888;2023-08-20T06:19:58;24.43;84.21
72114;SHT31;59989;46.220;19.888;2023-08-20T06:23:00;24.62;83.13
72114;SHT31;59989;46.220;19.888;2023-08-20T06:26:03;24.84;82.83
72114;SHT31;59989;46.220;19.888;2023-08-20T06:29:05;25.04;81.63
72114;SHT31;59989;46.220;19.888;2023-08-20T06:32:08;25.31;81.34
72114;SHT31;59989;46.220;19.888;2023-08-20T06:35:10;25.45;79.99
72114;SHT31;59989;46.220;19.888;2023-08-20T06:38:13;25.69;79.24
72114;SHT31;59989;46.220;19.888;2023-08-20T06:41:15;25.96;78.74
72114;SHT31;59989;46.220;19.888;2023-08-20T06:44:18;26.17;77.15
72114;SHT31;59989;46.220;19.888;2023-08-20T06:47:20;26.57;76.34
72114;SHT31;59989;46.220;19.888;2023-08-20T06:50:23;26.99;75.23
72114;SHT31;59989;46.220;19.888;2023-08-20T06:53:25;27.27;74.29
72114;SHT31;59989;46.220;19.888;2023-08-20T06:56:28;27.51;71.17
72114;SHT31;59989;46.220;19.888;2023-08-20T06:59:30;27.90;71.06
72114;SHT31;59989;46.220;19.888;2023-08-20T07:02:33;28.11;70.85
72114;SHT31;59989;46.220;19.888;2023-08-20T07:05:35;28.38;69.98
72114;SHT31;59989;46.220;19.888;2023-08-20T07:08:38;28.63;68.16
72114;SHT31;59989;46.220;19.888;2023-08-20T07:11:41;28.69;67.01
72114;SHT31;59989;46.220;19.888;2023-08-20T07:14:44;28.64;67.09
72114;SHT31;59989;46.220;19.888;2023-08-20T07:17:46;28.87;65.84
72114;SHT31;59989;46.220;19.888;2023-08-20T07:20:50;29.11;64.34
72114;SHT31;59989;46.220;19.888;2023-08-20T07:23:53;29.31;65.21
72114;SHT31;59989;46.220;19.888;2023-08-20T07:26:56;29.55;65.30
72114;SHT31;59989;46.220;19.888;2023-08-20T07:30:03;29.38;63.30
72114;SHT31;59989;46.220;19.888;2023-08-20T07:33:06;29.48;63.40
72114;SHT31;59989;46.220;19.888;2023-08-20T07:36:09;29.63;62.35
72114;SHT31;59989;46.220;19.888;2023-08-20T07:39:12;29.87;62.09
72114;SHT31;59989;46.220;19.888;2023-08-20T07:42:19;29.66;61.35
72114;SHT31;59989;46.220;19.888;2023-08-20T07:45:21;29.83;62.29
72114;SHT31;59989;46.220;19.888;2023-08-20T07:48:24;30.04;61.84
72114;SHT31;59989;46.220;19.888;2023-08-20T07:51:26;30.00;61.49
72114;SHT31;59989;46.220;19.888;2023-08-20T07:54:29;30.12;61.13
72114;SHT31;59989;46.220;19.888;2023-08-20T07:57:31;30.31;59.81
72114;SHT31;59989;46.220;19.888;2023-08-20T08:00:34;30.49;60.18
72114;SHT31;59989;46.220;19.888;2023-08-20T08:03:37;30.48;59.49
72114;SHT31;59989;46.220;19.888;2023-08-20T08:06:40;30.54;60.51
72114;SHT31;59989;46.220;19.888;2023-08-20T08:09:42;30.45;59.06
72114;SHT31;59989;46.220;19.888;2023-08-20T08:12:45;30.41;60.12
72114;SHT31;59989;46.220;19.888;2023-08-20T08:15:48;30.62;59.26
72114;SHT31;59989;46.220;19.888;2023-08-20T08:18:50;30.74;60.49
72114;SHT31;59989;46.220;19.888;2023-08-20T08:21:54;30.68;59.31
72114;SHT31;59989;46.220;19.888;2023-08-20T08:24:56;31.17;58.93
72114;SHT31;59989;46.220;19.888;2023-08-20T08:27:58;31.03;58.23
72114;SHT31;59989;46.220;19.888;2023-08-20T08:31:02;31.03;58.71
72114;SHT31;59989;46.220;19.888;2023-08-20T08:34:09;31.15;58.05
72114;SHT31;59989;46.220;19.888;2023-08-20T08:37:11;31.23;57.44
72114;SHT31;59989;46.220;19.888;2023-08-20T08:40:14;31.25;57.43
72114;SHT31;59989;46.220;19.888;2023-08-20T08:43:18;31.13;57.14
72114;SHT31;59989;46.220;19.888;2023-08-20T08:46:20;31.31;57.01
72114;SHT31;59989;46.220;19.888;2023-08-20T08:49:24;31.19;55.45
72114;SHT31;59989;46.220;19.888;2023-08-20T08:52:28;31.31;55.41
72114;SHT31;59989;46.220;19.888;2023-08-20T08:55:30;31.41;55.13
72114;SHT31;59989;46.220;19.888;2023-08-20T08:58:33;31.54;54.89
72114;SHT31;59989;46.220;19.888;2023-08-20T09:01:38;31.61;54.32
72114;SHT31;59989;46.220;19.888;2023-08-20T09:04:42;31.75;53.66
72114;SHT31;59989;46.220;19.888;2023-08-20T09:07:44;32.15;53.90
72114;SHT31;59989;46.220;19.888;2023-08-20T09:10:50;32.48;52.63
72114;SHT31;59989;46.220;19.888;2023-08-20T09:13:53;32.69;53.78
72114;SHT31;59989;46.220;19.888;2023-08-20T09:17:00;32.80;50.96
72114;SHT31;59989;46.220;19.888;2023-08-20T09:20:04;32.94;50.67
72114;SHT31;59989;46.220;19.888;2023-08-20T09:23:12;32.87;50.73
72114;SHT31;59989;46.220;19.888;2023-08-20T09:26:18;33.03;50.58
72114;SHT31;59989;46.220;19.888;2023-08-20T09:29:20;32.77;50.79
72114;SHT31;59989;46.220;19.888;2023-08-20T09:32:27;33.08;50.40
72114;SHT31;59989;46.220;19.888;2023-08-20T09:35:30;33.21;49.22
72114;SHT31;59989;46.220;19.888;2023-08-20T09:38:36;33.31;48.78
72114;SHT31;59989;46.220;19.888;2023-08-20T09:41:43;33.38;48.97
72114;SHT31;59989;46.220;19.888;2023-08-20T09:44:47;33.68;47.90
72114;SHT31;59989;46.220;19.888;2023-08-20T09:47:57;33.89;50.26
72114;SHT31;59989;46.220;19.888;2023-08-20T09:51:04;34.34;48.58
72114;SHT31;59989;46.220;19.888;2023-08-20T09:54:15;33.73;50.03
72114;SHT31;59989;46.220;19.888;2023-08-20T09:57:41;34.51;48.05
72114;SHT31;59989;46.220;19.888;2023-08-20T10:00:50;34.94;46.72
72114;SHT31;59989;46.220;19.888;2023-08-20T10:03:54;34.34;47.19
72114;SHT31;59989;46.220;19.888;2023-08-20T10:06:57;34.24;47.49
72114;SHT31;59989;46.220;19.888;2023-08-20T10:10:03;34.28;46.02
72114;SHT31;59989;46.220;19.888;2023-08-20T10:13:06;34.68;46.22
72114;SHT31;59989;46.220;19.888;2023-08-20T10:16:13;34.91;46.26
72114;SHT31;59989;46.220;19.888;2023-08-20T10:19:16;35.12;45.55
72114;SHT31;59989;46.220;19.888;2023-08-20T10:22:20;35.32;44.91
72114;SHT31;59989;46.220;19.888;2023-08-20T10:25:24;35.57;45.85
72114;SHT31;59989;46.220;19.888;2023-08-20T10:28:27;34.96;46.49
72114;SHT31;59989;46.220;19.888;2023-08-20T10:31:32;35.22;45.82
72114;SHT31;59989;46.220;19.888;2023-08-20T10:34:36;35.47;45.55
72114;SHT31;59989;46.220;19.888;2023-08-20T10:41:06;35.11;45.03
72114;SHT31;59989;46.220;19.888;2023-08-20T10:44:10;35.06;45.12
72114;SHT31;59989;46.220;19.888;2023-08-20T10:47:17;35.50;43.82
72114;SHT31;59989;46.220;19.888;2023-08-20T10:50:19;34.87;45.65
72114;SHT31;59989;46.220;19.888;2023-08-20T10:53:22;35.29;44.05
72114;SHT31;59989;46.220;19.888;2023-08-20T10:56:39;35.90;44.14
72114;SHT31;59989;46.220;19.888;2023-08-20T10:59:43;35.26;44.72
72114;SHT31;59989;46.220;19.888;2023-08-20T11:02:46;35.72;44.85
72114;SHT31;59989;46.220;19.888;2023-08-20T11:05:50;36.07;43.63
72114;SHT31;59989;46.220;19.888;2023-08-20T11:08:53;36.36;42.25
72114;SHT31;59989;46.220;19.888;2023-08-20T11:11:56;36.44;43.50
72114;SHT31;59989;46.220;19.888;2023-08-20T11:15:00;36.71;42.72
72114;SHT31;59989;46.220;19.888;2023-08-20T11:18:04;37.00;42.41
72114;SHT31;59989;46.220;19.888;2023-08-20T11:21:07;35.72;43.71
72114;SHT31;59989;46.220;19.888;2023-08-20T11:24:10;36.15;43.76
72114;SHT31;59989;46.220;19.888;2023-08-20T11:27:13;35.88;43.54
72114;SHT31;59989;46.220;19.888;2023-08-20T11:30:16;36.82;42.26
72114;SHT31;59989;46.220;19.888;2023-08-20T11:33:19;36.24;42.50
72114;SHT31;59989;46.220;19.888;2023-08-20T11:36:21;35.87;43.59
72114;SHT31;59989;46.220;19.888;2023-08-20T11:39:24;37.02;41.45
72114;SHT31;59989;46.220;19.888;2023-08-20T11:42:27;36.75;41.50
72114;SHT31;59989;46.220;19.888;2023-08-20T11:45:29;36.69;41.05
72114;SHT31;59989;46.220;19.888;2023-08-20T11:48:32;37.14;40.78
72114;SHT31;59989;46.220;19.888;2023-08-20T11:51:42;37.82;40.47
72114;SHT31;59989;46.220;19.888;2023-08-20T11:54:44;37.34;40.65
72114;SHT31;59989;46.220;19.888;2023-08-20T11:57:50;37.37;40.76
72114;SHT31;59989;46.220;19.888;2023-08-20T12:00:53;37.37;40.45
72114;SHT31;59989;46.220;19.888;2023-08-20T12:04:09;37.24;41.34
72114;SHT31;59989;46.220;19.888;2023-08-20T12:07:15;37.07;41.29
72114;SHT31;59989;46.220;19.888;2023-08-20T12:10:21;38.43;38.36
72114;SHT31;59989;46.220;19.888;2023-08-20T12:13:24;37.33;40.26
72114;SHT31;59989;46.220;19.888;2023-08-20T12:16:26;37.21;40.40
72114;SHT31;59989;46.220;19.888;2023-08-20T12:19:29;37.84;39.89
72114;SHT31;59989;46.220;19.888;2023-08-20T12:22:32;39.15;38.65
72114;SHT31;59989;46.220;19.888;2023-08-20T12:25:35;38.33;38.19
72114;SHT31;59989;46.220;19.888;2023-08-20T12:28:38;39.85;37.48
72114;SHT31;59989;46.220;19.888;2023-08-20T12:31:41;40.54;36.42
72114;SHT31;59989;46.220;19.888;2023-08-20T12:34:44;40.28;37.05
72114;SHT31;59989;46.220;19.888;2023-08-20T12:37:46;39.88;36.32
72114;SHT31;59989;46.220;19.888;2023-08-20T12:40:49;39.37;36.48
72114;SHT31;59989;46.220;19.888;2023-08-20T12:43:51;38.93;36.62
72114;SHT31;59989;46.220;19.888;2023-08-20T12:46:54;38.74;35.78
72114;SHT31;59989;46.220;19.888;2023-08-20T12:49:56;39.56;36.38
72114;SHT31;59989;46.220;19.888;2023-08-20T12:52:59;40.65;35.20
72114;SHT31;59989;46.220;19.888;2023-08-20T12:56:01;39.80;36.51
72114;SHT31;59989;46.220;19.888;2023-08-20T12:59:04;38.59;37.76
72114;SHT31;59989;46.220;19.888;2023-08-20T13:02:06;39.10;37.52
72114;SHT31;59989;46.220;19.888;2023-08-20T13:05:09;40.86;34.71
72114;SHT31;59989;46.220;19.888;2023-08-20T13:08:13;41.25;35.25
72114;SHT31;59989;46.220;19.888;2023-08-20T13:11:17;40.20;35.68
72114;SHT31;59989;46.220;19.888;2023-08-20T13:14:21;41.22;34.46
72114;SHT31;59989;46.220;19.888;2023-08-20T13:17:24;39.01;37.08
72114;SHT31;59989;46.220;19.888;2023-08-20T13:20:27;38.77;37.49
72114;SHT31;59989;46.220;19.888;2023-08-20T13:23:29;40.01;35.82
72114;SHT31;59989;46.220;19.888;2023-08-20T13:26:32;40.28;35.05
72114;SHT31;59989;46.220;19.888;2023-08-20T13:29:34;39.96;35.28
72114;SHT31;59989;46.220;19.888;2023-08-20T13:32:37;40.38;35.05
72114;SHT31;59989;46.220;19.888;2023-08-20T13:35:41;41.78;33.50
72114;SHT31;59989;46.220;19.888;2023-08-20T13:38:44;40.38;35.00
72114;SHT31;59989;46.220;19.888;2023-08-20T13:41:49;41.22;34.51
72114;SHT31;59989;46.220;19.888;2023-08-20T13:44:51;39.89;34.63
72114;SHT31;59989;46.220;19.888;2023-08-20T13:47:54;40.03;35.26
72114;SHT31;59989;46.220;19.888;2023-08-20T13:50:56;40.51;34.44
72114;SHT31;59989;46.220;19.888;2023-08-20T13:53:59;40.38;34.82
72114;SHT31;59989;46.220;19.888;2023-08-20T13:57:03;40.94;34.70
72114;SHT31;59989;46.220;19.888;2023-08-20T14:00:06;40.62;33.35
72114;SHT31;59989;46.220;19.888;2023-08-20T14:03:12;43.31;31.38
72114;SHT31;59989;46.220;19.888;2023-08-20T14:06:15;43.49;31.19
72114;SHT31;59989;46.220;19.888;2023-08-20T14:09:18;43.13;32.00
72114;SHT31;59989;46.220;19.888;2023-08-20T14:12:21;41.76;33.12
72114;SHT31;59989;46.220;19.888;2023-08-20T14:15:23;41.49;34.05
72114;SHT31;59989;46.220;19.888;2023-08-20T14:18:26;42.55;32.13
72114;SHT31;59989;46.220;19.888;2023-08-20T14:21:29;42.45;32.46
72114;SHT31;59989;46.220;19.888;2023-08-20T14:24:31;42.57;32.51
72114;SHT31;59989;46.220;19.888;2023-08-20T14:27:34;44.47;29.91
72114;SHT31;59989;46.220;19.888;2023-08-20T14:30:38;44.07;30.69
72114;SHT31;59989;46.220;19.888;2023-08-20T14:33:40;41.40;33.09
72114;SHT31;59989;46.220;19.888;2023-08-20T14:36:43;41.91;32.97
72114;SHT31;59989;46.220;19.888;2023-08-20T14:39:45;42.00;31.98
72114;SHT31;59989;46.220;19.888;2023-08-20T14:42:48;41.63;31.92
72114;SHT31;59989;46.220;19.888;2023-08-20T14:45:51;44.06;29.53
72114;SHT31;59989;46.220;19.888;2023-08-20T14:48:53;41.92;31.93
72114;SHT31;59989;46.220;19.888;2023-08-20T14:51:57;41.29;33.11
72114;SHT31;59989;46.220;19.888;2023-08-20T14:55:21;40.34;33.42
72114;SHT31;59989;46.220;19.888;2023-08-20T14:58:23;40.23;34.39
72114;SHT31;59989;46.220;19.888;2023-08-20T15:01:25;39.94;33.94
72114;SHT31;59989;46.220;19.888;2023-08-20T15:04:28;40.03;34.35
72114;SHT31;59989;46.220;19.888;2023-08-20T15:07:31;40.61;33.76
72114;SHT31;59989;46.220;19.888;2023-08-20T15:10:33;40.64;33.65
72114;SHT31;59989;46.220;19.888;2023-08-20T15:13:35;41.30;32.73
72114;SHT31;59989;46.220;19.888;2023-08-20T15:16:38;42.12;31.82
72114;SHT31;59989;46.220;19.888;2023-08-20T15:19:40;42.63;31.01
72114;SHT31;59989;46.220;19.888;2023-08-20T15:22:43;42.83;30.82
72114;SHT31;59989;46.220;19.888;2023-08-20T15:25:51;41.46;32.47
72114;SHT31;59989;46.220;19.888;2023-08-20T15:28:55;40.23;34.21
72114;SHT31;59989;46.220;19.888;2023-08-20T15:31:57;39.94;34.30
72114;SHT31;59989;46.220;19.888;2023-08-20T15:35:00;40.38;34.37
72114;SHT31;59989;46.220;19.888;2023-08-20T15:38:05;39.94;34.59
72114;SHT31;59989;46.220;19.888;2023-08-20T15:41:08;38.57;36.69
72114;SHT31;59989;46.220;19.888;2023-08-20T15:44:10;37.75;38.22
72114;SHT31;59989;46.220;19.888;2023-08-20T15:47:13;38.11;37.64
72114;SHT31;59989;46.220;19.888;2023-08-20T15:50:15;36.83;39.82
72114;SHT31;59989;46.220;19.888;2023-08-20T15:53:18;35.78;41.63
72114;SHT31;59989;46.220;19.888;2023-08-20T15:56:20;34.51;43.93
72114;SHT31;59989;46.220;19.888;2023-08-20T15:59:23;34.05;45.07
72114;SHT31;59989;46.220;19.888;2023-08-20T16:02:25;33.44;46.08
72114;SHT31;59989;46.220;19.888;2023-08-20T16:05:28;33.32;46.42
72114;SHT31;59989;46.220;19.888;2023-08-20T16:08:31;33.11;46.72
72114;SHT31;59989;46.220;19.888;2023-08-20T16:11:33;32.99;46.98
72114;SHT31;59989;46.220;19.888;2023-08-20T16:14:36;32.83;47.70
72114;SHT31;59989;46.220;19.888;2023-08-20T16:17:38;32.83;47.22
72114;SHT31;59989;46.220;19.888;2023-08-20T16:20:42;32.76;47.70
72114;SHT31;59989;46.220;19.888;2023-08-20T16:23:45;32.76;48.20
72114;SHT31;59989;46.220;19.888;2023-08-20T16:26:47;32.70;48.49
72114;SHT31;59989;46.220;19.888;2023-08-20T16:29:50;32.66;48.32
72114;SHT31;59989;46.220;19.888;2023-08-20T16:32:52;32.48;48.69
72114;SHT31;59989;46.220;19.888;2023-08-20T16:35:55;32.45;50.92
72114;SHT31;59989;46.220;19.888;2023-08-20T16:38:57;32.12;50.13
72114;SHT31;59989;46.220;19.888;2023-08-20T16:42:00;31.87;51.60
72114;SHT31;59989;46.220;19.888;2023-08-20T16:45:03;31.66;51.72
72114;SHT31;59989;46.220;19.888;2023-08-20T16:48:06;31.61;52.11
72114;SHT31;59989;46.220;19.888;2023-08-20T16:51:08;31.56;55.03
72114;SHT31;59989;46.220;19.888;2023-08-20T16:54:11;31.46;54.64
72114;SHT31;59989;46.220;19.888;2023-08-20T16:57:13;31.43;54.36
72114;SHT31;59989;46.220;19.888;2023-08-20T17:00:16;31.36;55.26
72114;SHT31;59989;46.220;19.888;2023-08-20T17:03:18;31.03;55.85
72114;SHT31;59989;46.220;19.888;2023-08-20T17:06:21;30.99;55.43
72114;SHT31;59989;46.220;19.888;2023-08-20T17:09:23;30.86;55.85
72114;SHT31;59989;46.220;19.888;2023-08-20T17:12:27;30.78;55.22
72114;SHT31;59989;46.220;19.888;2023-08-20T17:15:30;30.61;56.17
72114;SHT31;59989;46.220;19.888;2023-08-20T17:18:32;30.45;56.43
72114;SHT31;59989;46.220;19.888;2023-08-20T17:21:35;30.27;57.27
72114;SHT31;59989;46.220;19.888;2023-08-20T17:24:37;30.07;56.96
72114;SHT31;59989;46.220;19.888;2023-08-20T17:27:40;29.93;57.58
72114;SHT31;59989;46.220;19.888;2023-08-20T17:30:42;29.76;58.79
72114;SHT31;59989;46.220;19.888;2023-08-20T17:33:45;29.52;61.27
72114;SHT31;59989;46.220;19.888;2023-08-20T17:36:49;29.27;62.70
72114;SHT31;59989;46.220;19.888;2023-08-20T17:39:52;29.06;61.48
72114;SHT31;59989;46.220;19.888;2023-08-20T17:42:54;28.96;61.83
72114;SHT31;59989;46.220;19.888;2023-08-20T17:45:57;28.88;61.08
72114;SHT31;59989;46.220;19.888;2023-08-20T17:48:59;28.80;61.95
72114;SHT31;59989;46.220;19.888;2023-08-20T17:52:02;28.80;60.65
72114;SHT31;59989;46.220;19.888;2023-08-20T17:55:04;28.83;60.59
72114;SHT31;59989;46.220;19.888;2023-08-20T17:58:07;28.81;59.50
72114;SHT31;59989;46.220;19.888;2023-08-20T18:01:09;28.84;60.09
72114;SHT31;59989;46.220;19.888;2023-08-20T18:04:12;28.77;60.38
72114;SHT31;59989;46.220;19.888;2023-08-20T18:07:15;28.55;62.58
72114;SHT31;59989;46.220;19.888;2023-08-20T18:10:17;28.33;63.44
72114;SHT31;59989;46.220;19.888;2023-08-20T18:13:20;28.18;62.80
72114;SHT31;59989;46.220;19.888;2023-08-20T18:16:22;27.98;63.40
72114;SHT31;59989;46.220;19.888;2023-08-20T18:19:25;27.90;64.27
72114;SHT31;59989;46.220;19.888;2023-08-20T18:22:27;27.84;63.48
72114;SHT31;59989;46.220;19.888;2023-08-20T18:25:30;27.80;64.97
72114;SHT31;59989;46.220;19.888;2023-08-20T18:28:32;27.68;67.35
72114;SHT31;59989;46.220;19.888;2023-08-20T18:31:35;27.58;65.39
72114;SHT31;59989;46.220;19.888;2023-08-20T18:34:37;27.49;66.41
72114;SHT31;59989;46.220;19.888;2023-08-20T18:37:40;27.39;66.09
72114;SHT31;59989;46.220;19.888;2023-08-20T18:40:42;27.37;66.11
72114;SHT31;59989;46.220;19.888;2023-08-20T18:43:45;27.39;65.00
72114;SHT31;59989;46.220;19.888;2023-08-20T18:46:47;27.53;63.68
72114;SHT31;59989;46.220;19.888;2023-08-20T18:49:50;27.58;64.85
72114;SHT31;59989;46.220;19.888;2023-08-20T18:52:52;27.58;63.93
72114;SHT31;59989;46.220;19.888;2023-08-20T18:55:55;27.55;63.97
72114;SHT31;59989;46.220;19.888;2023-08-20T18:58:58;27.55;63.29
72114;SHT31;59989;46.220;19.888;2023-08-20T19:02:00;27.55;63.40
72114;SHT31;59989;46.220;19.888;2023-08-20T19:05:05;27.57;63.11
72114;SHT31;59989;46.220;19.888;2023-08-20T19:08:08;27.55;63.01